createdAt,value
2018-10-18T00:01:25.274Z,8.46
2018-10-18T00:03:54.418Z,8.46
2018-10-18T00:06:23.580Z,8.44
2018-10-18T00:08:52.751Z,8.44
2018-10-18T00:11:21.968Z,8.45
2018-10-18T00:13:51.134Z,8.43
2018-10-18T00:16:20.352Z,8.43
2018-10-18T00:18:49.544Z,8.40
2018-10-18T00:21:18.721Z,8.37
2018-10-18T00:23:47.891Z,8.32
2018-10-18T00:26:17.106Z,8.21
2018-10-18T00:28:46.225Z,8.14
2018-10-18T00:31:15.382Z,8.14
2018-10-18T00:33:44.614Z,8.13
2018-10-18T00:36:13.795Z,8.13
2018-10-18T00:38:42.920Z,8.12
2018-10-18T00:41:12.072Z,8.12
2018-10-18T00:43:41.213Z,8.08
2018-10-18T00:46:10.385Z,8.08
2018-10-18T00:48:39.688Z,8.06
2018-10-18T00:51:09.308Z,8.02
2018-10-18T00:53:38.481Z,8.01
2018-10-18T00:56:07.749Z,7.99
2018-10-18T00:58:36.800Z,8.00
2018-10-18T01:01:06.380Z,8.00
2018-10-18T01:03:35.579Z,7.99
2018-10-18T01:06:04.927Z,7.85
2018-10-18T01:08:34.153Z,7.82
2018-10-18T01:11:03.392Z,7.82
2018-10-18T01:13:32.566Z,7.81
2018-10-18T01:16:01.757Z,7.80
2018-10-18T01:18:30.957Z,7.80
2018-10-18T01:21:00.129Z,7.80
2018-10-18T01:23:29.476Z,7.82
2018-10-18T01:25:58.627Z,7.80
2018-10-18T01:28:27.910Z,7.79
2018-10-18T01:30:57.061Z,7.77
2018-10-18T01:33:26.246Z,7.77
2018-10-18T01:35:55.437Z,7.77
2018-10-18T01:38:24.577Z,7.76
2018-10-18T01:40:53.728Z,7.78
2018-10-18T01:43:22.867Z,7.78
2018-10-18T01:45:52.061Z,7.78
2018-10-18T01:48:21.213Z,7.76
2018-10-18T01:50:50.374Z,7.75
2018-10-18T01:53:19.542Z,7.73
2018-10-18T01:55:48.705Z,7.72
2018-10-18T01:58:18.353Z,7.70
2018-10-18T02:00:47.669Z,7.74
2018-10-18T02:03:16.855Z,7.76
2018-10-18T02:05:46.034Z,7.77
2018-10-18T02:08:15.218Z,7.75
2018-10-18T02:10:44.389Z,7.70
2018-10-18T02:13:13.537Z,7.68
2018-10-18T02:15:42.830Z,7.65
2018-10-18T02:18:12.112Z,7.63
2018-10-18T02:20:41.169Z,7.58
2018-10-18T02:23:10.403Z,7.52
2018-10-18T02:25:39.534Z,7.50
2018-10-18T02:28:08.702Z,7.43
2018-10-18T02:30:37.931Z,7.41
2018-10-18T02:33:07.281Z,7.37
2018-10-18T02:35:36.475Z,7.34
2018-10-18T02:38:05.721Z,7.33
2018-10-18T02:40:35.073Z,7.26
2018-10-18T02:43:04.614Z,7.22
2018-10-18T02:45:33.774Z,7.23
2018-10-18T02:48:03.051Z,7.22
2018-10-18T02:50:32.131Z,7.18
2018-10-18T02:53:01.308Z,7.16
2018-10-18T02:55:30.426Z,7.15
2018-10-18T02:57:59.573Z,7.16
2018-10-18T03:00:28.764Z,7.15
2018-10-18T03:02:57.900Z,7.14
2018-10-18T03:05:27.040Z,7.13
2018-10-18T03:07:56.259Z,7.16
2018-10-18T03:10:25.461Z,7.17
2018-10-18T03:12:54.578Z,7.19
2018-10-18T03:15:23.761Z,7.19
2018-10-18T03:17:52.909Z,7.17
2018-10-18T03:20:22.086Z,7.15
2018-10-18T03:22:51.294Z,7.14
2018-10-18T03:25:20.427Z,7.16
2018-10-18T03:27:49.587Z,7.19
2018-10-18T03:30:18.861Z,7.20
2018-10-18T03:32:47.920Z,7.20
2018-10-18T03:35:17.056Z,7.22
2018-10-18T03:37:46.215Z,7.22
2018-10-18T03:40:17.040Z,7.19
2018-10-18T03:42:46.261Z,7.14
2018-10-18T03:45:15.694Z,7.10
2018-10-18T03:47:45.333Z,7.05
2018-10-18T03:50:14.534Z,7.05
2018-10-18T03:52:43.813Z,7.00
2018-10-18T03:55:13.555Z,6.99
2018-10-18T03:57:43.084Z,6.98
2018-10-18T04:00:12.402Z,7.01
2018-10-18T04:02:41.532Z,7.02
2018-10-18T04:05:11.039Z,7.01
2018-10-18T04:07:40.262Z,7.00
2018-10-18T04:10:09.419Z,7.00
2018-10-18T04:12:38.637Z,6.96
2018-10-18T04:15:08.409Z,6.94
2018-10-18T04:17:37.601Z,5.62
2018-10-18T04:20:07.552Z,6.90
2018-10-18T04:22:36.739Z,6.91
2018-10-18T04:25:06.920Z,6.94
2018-10-18T04:27:36.057Z,6.94
2018-10-18T04:30:06.069Z,6.96
2018-10-18T04:32:35.179Z,6.96
2018-10-18T04:35:04.731Z,6.99
2018-10-18T04:37:34.020Z,6.98
2018-10-18T04:40:03.130Z,6.96
2018-10-18T04:42:32.291Z,6.93
2018-10-18T04:45:01.440Z,6.90
2018-10-18T04:47:34.237Z,6.86
2018-10-18T04:50:03.419Z,6.84
2018-10-18T04:52:32.620Z,6.85
2018-10-18T04:55:01.900Z,6.84
2018-10-18T04:57:31.045Z,6.85
2018-10-18T05:00:00.151Z,6.86
2018-10-18T05:02:29.373Z,6.87
2018-10-18T05:05:09.810Z,6.86
2018-10-18T05:07:38.998Z,6.89
2018-10-18T05:10:08.170Z,6.86
2018-10-18T05:12:37.387Z,6.87
2018-10-18T05:15:07.885Z,6.87
2018-10-18T05:17:37.775Z,6.90
2018-10-18T05:20:07.165Z,6.89
2018-10-18T05:22:36.302Z,6.89
2018-10-18T05:25:05.989Z,6.92
2018-10-18T05:27:35.117Z,6.94
2018-10-18T05:30:04.739Z,6.94
2018-10-18T05:32:33.885Z,6.95
2018-10-18T05:35:05.238Z,6.94
2018-10-18T05:37:34.557Z,6.81
2018-10-18T05:40:03.644Z,6.94
2018-10-18T05:42:32.781Z,6.96
2018-10-18T05:45:01.959Z,6.97
2018-10-18T05:47:31.084Z,6.98
2018-10-18T05:50:00.323Z,6.98
2018-10-18T05:52:29.489Z,7.02
2018-10-18T05:54:58.725Z,7.01
2018-10-18T05:57:27.948Z,7.00
2018-10-18T05:59:57.215Z,7.01
2018-10-18T06:02:26.407Z,7.05
2018-10-18T06:04:55.635Z,7.08
2018-10-18T06:07:24.868Z,7.09
2018-10-18T06:09:54.160Z,7.12
2018-10-18T06:12:23.337Z,7.18
2018-10-18T06:14:52.594Z,7.18
2018-10-18T06:17:22.353Z,7.22
2018-10-18T06:19:51.583Z,7.26
2018-10-18T06:22:20.940Z,7.23
2018-10-18T06:24:50.219Z,7.27
2018-10-18T06:27:19.493Z,7.36
2018-10-18T06:29:48.695Z,7.45
2018-10-18T06:32:17.908Z,7.52
2018-10-18T06:34:47.147Z,7.55
2018-10-18T06:37:16.460Z,7.58
2018-10-18T06:39:45.593Z,7.66
2018-10-18T06:42:14.828Z,7.71
2018-10-18T06:44:44.374Z,7.74
2018-10-18T06:47:13.675Z,7.80
2018-10-18T06:49:42.951Z,7.86
2018-10-18T06:52:12.219Z,7.91
2018-10-18T06:54:41.464Z,7.97
2018-10-18T06:57:10.722Z,8.05
2018-10-18T06:59:39.932Z,8.11
2018-10-18T07:02:10.758Z,8.19
2018-10-18T07:04:40.015Z,8.28
2018-10-18T07:07:09.313Z,8.33
2018-10-18T07:09:38.585Z,8.37
2018-10-18T07:12:08.115Z,8.44
2018-10-18T07:14:37.420Z,8.50
2018-10-18T07:17:06.811Z,8.57
2018-10-18T07:19:36.363Z,8.65
2018-10-18T07:22:05.652Z,8.72
2018-10-18T07:24:34.878Z,8.72
2018-10-18T07:27:04.197Z,8.76
2018-10-18T07:29:33.407Z,8.81
2018-10-18T07:32:02.633Z,8.85
2018-10-18T07:34:31.856Z,8.91
2018-10-18T07:37:01.136Z,8.83
2018-10-18T07:39:30.326Z,8.86
2018-10-18T07:41:59.658Z,8.95
2018-10-18T07:44:28.879Z,9.11
2018-10-18T07:46:58.279Z,9.30
2018-10-18T07:49:27.352Z,9.45
2018-10-18T07:51:56.670Z,9.57
2018-10-18T07:54:25.886Z,9.70
2018-10-18T07:56:55.111Z,9.72
2018-10-18T07:59:24.317Z,9.80
2018-10-18T08:01:53.575Z,9.98
2018-10-18T08:04:22.866Z,10.16
2018-10-18T08:06:52.076Z,10.28
2018-10-18T08:09:21.295Z,10.37
2018-10-18T08:11:50.550Z,10.36
2018-10-18T08:14:19.778Z,10.34
2018-10-18T08:16:49.011Z,10.52
2018-10-18T08:19:18.358Z,10.76
2018-10-18T08:21:47.478Z,11.03
2018-10-18T08:24:16.691Z,11.25
2018-10-18T08:26:45.942Z,11.45
2018-10-18T08:29:15.146Z,11.55
2018-10-18T08:31:44.350Z,11.49
2018-10-18T08:34:13.585Z,11.57
2018-10-18T08:36:42.800Z,11.57
2018-10-18T08:39:12.463Z,11.63
2018-10-18T08:41:41.944Z,11.72
2018-10-18T08:44:11.292Z,11.85
2018-10-18T08:46:40.512Z,12.12
2018-10-18T08:49:09.800Z,12.44
2018-10-18T08:51:39.017Z,12.59
2018-10-18T08:54:08.318Z,12.84
2018-10-18T08:56:37.599Z,13.19
2018-10-18T08:59:06.877Z,13.38
2018-10-18T09:01:36.131Z,13.53
2018-10-18T09:04:05.491Z,13.72
2018-10-18T09:06:34.698Z,13.89
2018-10-18T09:09:07.102Z,14.08
2018-10-18T09:11:36.385Z,14.26
2018-10-18T09:14:07.206Z,14.37
2018-10-18T09:16:36.448Z,14.30
2018-10-18T09:19:07.176Z,14.23
2018-10-18T09:21:36.392Z,14.31
2018-10-18T09:24:06.072Z,14.56
2018-10-18T09:26:35.334Z,14.87
2018-10-18T09:29:04.639Z,15.12
2018-10-18T09:31:33.892Z,15.40
2018-10-18T09:34:03.125Z,15.67
2018-10-18T09:36:32.529Z,15.96
2018-10-18T09:39:01.796Z,15.86
2018-10-18T09:41:31.096Z,15.98
2018-10-18T09:44:04.514Z,16.02
2018-10-18T09:46:35.040Z,16.11
2018-10-18T09:49:04.752Z,16.23
2018-10-18T09:51:34.076Z,16.52
2018-10-18T09:54:03.943Z,16.65
2018-10-18T09:56:33.626Z,16.67
2018-10-18T09:59:03.280Z,16.53
2018-10-18T10:01:37.743Z,16.62
2018-10-18T10:04:07.018Z,16.86
2018-10-18T10:06:36.394Z,16.89
2018-10-18T10:09:07.662Z,16.90
2018-10-18T10:11:36.940Z,16.71
2018-10-18T10:14:06.275Z,16.72
2018-10-18T10:16:35.498Z,16.79
2018-10-18T10:19:04.979Z,17.21
2018-10-18T10:21:34.191Z,17.53
2018-10-18T10:24:03.389Z,17.41
2018-10-18T10:26:32.644Z,17.30
2018-10-18T10:29:01.871Z,17.62
2018-10-18T10:31:31.218Z,17.74
2018-10-18T10:34:00.452Z,17.79
2018-10-18T10:36:29.753Z,17.84
2018-10-18T10:38:59.018Z,17.99
2018-10-18T10:41:28.174Z,18.17
2018-10-18T10:43:57.387Z,18.30
2018-10-18T10:46:27.191Z,18.23
2018-10-18T10:48:56.477Z,18.34
2018-10-18T10:51:25.714Z,18.47
2018-10-18T10:53:55.010Z,18.65
2018-10-18T10:56:24.203Z,18.85
2018-10-18T10:58:54.312Z,18.94
2018-10-18T11:01:25.698Z,18.84
2018-10-18T11:03:56.642Z,18.72
2018-10-18T11:06:26.342Z,18.68
2018-10-18T11:08:55.610Z,18.72
2018-10-18T11:11:24.906Z,18.80
2018-10-18T11:13:54.191Z,18.85
2018-10-18T11:16:27.055Z,19.12
2018-10-18T11:18:56.496Z,18.91
2018-10-18T11:21:26.648Z,18.66
2018-10-18T11:23:55.882Z,18.63
2018-10-18T11:26:25.113Z,18.65
2018-10-18T11:28:54.389Z,18.77
2018-10-18T11:31:23.602Z,18.82
2018-10-18T11:33:52.851Z,18.87
2018-10-18T11:36:22.073Z,19.04
2018-10-18T11:38:51.343Z,18.99
2018-10-18T11:41:28.043Z,19.20
2018-10-18T11:44:04.777Z,19.16
2018-10-18T11:46:41.473Z,19.18
2018-10-18T11:49:18.207Z,19.25
2018-10-18T11:51:55.252Z,19.46
2018-10-18T11:54:31.860Z,19.62
2018-10-18T11:57:09.790Z,19.42
2018-10-18T11:59:39.164Z,19.43
2018-10-18T12:02:08.530Z,19.36
2018-10-18T12:04:37.645Z,19.56
2018-10-18T12:07:06.957Z,19.66
2018-10-18T12:09:36.193Z,19.71
2018-10-18T12:12:05.459Z,19.63
2018-10-18T12:14:34.669Z,19.59
2018-10-18T12:17:03.945Z,19.43
2018-10-18T12:19:33.095Z,19.34
2018-10-18T12:22:02.324Z,19.37
2018-10-18T12:24:31.648Z,19.48
2018-10-18T12:27:00.894Z,19.60
2018-10-18T12:29:30.079Z,19.82
2018-10-18T12:31:59.347Z,19.72
2018-10-18T12:34:28.529Z,19.68
2018-10-18T12:36:57.744Z,19.84
2018-10-18T12:39:27.040Z,19.93
2018-10-18T12:41:56.331Z,19.78
2018-10-18T12:44:29.111Z,19.86
2018-10-18T12:46:58.345Z,19.93
2018-10-18T12:49:27.604Z,19.87
2018-10-18T12:51:56.858Z,19.99
2018-10-18T12:54:26.092Z,20.01
2018-10-18T12:56:55.381Z,20.05
2018-10-18T12:59:24.591Z,20.03
2018-10-18T13:01:53.863Z,19.92
2018-10-18T13:04:23.210Z,19.88
2018-10-18T13:06:52.436Z,19.77
2018-10-18T13:09:21.725Z,19.72
2018-10-18T13:11:50.902Z,19.77
2018-10-18T13:14:20.130Z,19.87
2018-10-18T13:16:49.334Z,19.74
2018-10-18T13:19:18.606Z,19.53
2018-10-18T13:21:47.910Z,19.45
2018-10-18T13:24:17.210Z,19.47
2018-10-18T13:26:46.372Z,19.54
2018-10-18T13:29:15.742Z,19.56
2018-10-18T13:31:44.933Z,19.41
2018-10-18T13:34:14.251Z,19.44
2018-10-18T13:36:43.410Z,19.36
2018-10-18T13:39:15.197Z,19.46
2018-10-18T13:41:44.359Z,19.42
2018-10-18T13:44:13.652Z,19.38
2018-10-18T13:46:42.896Z,19.40
2018-10-18T13:49:12.142Z,19.43
2018-10-18T13:51:41.430Z,19.34
2018-10-18T13:54:10.683Z,19.27
2018-10-18T13:56:39.891Z,19.23
2018-10-18T13:59:20.118Z,19.25
2018-10-18T14:01:49.323Z,19.23
2018-10-18T14:04:18.555Z,19.22
2018-10-18T14:06:48.379Z,19.13
2018-10-18T14:09:17.625Z,19.02
2018-10-18T14:11:46.831Z,18.99
2018-10-18T14:14:16.144Z,18.99
2018-10-18T14:16:45.381Z,19.01
2018-10-18T14:19:14.579Z,19.02
2018-10-18T14:21:43.888Z,19.02
2018-10-18T14:24:13.121Z,19.04
2018-10-18T14:26:42.522Z,19.04
2018-10-18T14:29:11.892Z,18.96
2018-10-18T14:31:41.033Z,18.91
2018-10-18T14:34:10.251Z,18.93
2018-10-18T14:36:39.471Z,18.92
2018-10-18T14:39:09.429Z,18.90
2018-10-18T14:41:38.906Z,18.85
2018-10-18T14:44:08.134Z,18.78
2018-10-18T14:46:37.346Z,18.69
2018-10-18T14:49:07.006Z,18.62
2018-10-18T14:51:36.254Z,18.60
2018-10-18T14:54:05.543Z,18.56
2018-10-18T14:56:34.762Z,18.50
2018-10-18T14:59:04.050Z,18.44
2018-10-18T15:01:33.310Z,18.42
2018-10-18T15:04:02.554Z,18.39
2018-10-18T15:06:31.821Z,18.34
2018-10-18T15:09:01.047Z,18.30
2018-10-18T15:11:30.285Z,18.24
2018-10-18T15:13:59.509Z,18.19
2018-10-18T15:16:28.768Z,18.12
2018-10-18T15:18:57.972Z,18.05
2018-10-18T15:21:27.711Z,17.96
2018-10-18T15:23:57.045Z,17.88
2018-10-18T15:26:26.351Z,17.79
2018-10-18T15:28:55.511Z,17.72
2018-10-18T15:31:24.789Z,17.60
2018-10-18T15:33:53.994Z,17.48
2018-10-18T15:36:23.213Z,17.35
2018-10-18T15:38:52.559Z,17.24
2018-10-18T15:41:21.666Z,17.11
2018-10-18T15:43:50.974Z,17.01
2018-10-18T15:46:20.623Z,16.89
2018-10-18T15:48:49.829Z,16.77
2018-10-18T15:51:19.083Z,16.61
2018-10-18T15:53:48.275Z,16.52
2018-10-18T15:56:17.642Z,16.39
2018-10-18T15:58:46.880Z,16.26
2018-10-18T16:01:17.352Z,16.13
2018-10-18T16:03:47.620Z,15.92
2018-10-18T16:06:16.908Z,15.78
2018-10-18T16:08:46.203Z,15.68
2018-10-18T16:11:15.340Z,15.59
2018-10-18T16:13:44.565Z,15.51
2018-10-18T16:16:13.797Z,15.39
2018-10-18T16:18:43.022Z,15.32
2018-10-18T16:21:12.306Z,15.24
2018-10-18T16:23:41.558Z,15.17
2018-10-18T16:26:10.946Z,15.09
2018-10-18T16:28:39.993Z,14.96
2018-10-18T16:31:09.358Z,14.82
2018-10-18T16:33:39.624Z,14.71
2018-10-18T16:36:08.835Z,14.58
2018-10-18T16:38:38.091Z,14.49
2018-10-18T16:41:07.801Z,14.42
2018-10-18T16:43:36.758Z,14.35
2018-10-18T16:46:06.469Z,14.28
2018-10-18T16:48:35.789Z,14.22
2018-10-18T16:51:05.193Z,14.17
2018-10-18T16:53:34.537Z,14.13
2018-10-18T16:56:04.105Z,14.04
2018-10-18T16:58:33.302Z,13.91
2018-10-18T17:01:02.651Z,13.84
2018-10-18T17:03:31.855Z,13.77
2018-10-18T17:06:01.162Z,13.66
2018-10-18T17:08:30.326Z,13.60
2018-10-18T17:10:59.554Z,13.54
2018-10-18T17:13:28.827Z,13.52
2018-10-18T17:15:58.458Z,13.43
2018-10-18T17:18:27.693Z,13.31
2018-10-18T17:20:56.959Z,13.18
2018-10-18T17:23:26.175Z,13.11
2018-10-18T17:25:55.412Z,13.12
2018-10-18T17:28:25.043Z,13.10
2018-10-18T17:30:54.307Z,13.09
2018-10-18T17:33:23.512Z,13.02
2018-10-18T17:35:52.898Z,12.99
2018-10-18T17:38:22.645Z,12.95
2018-10-18T17:40:51.931Z,12.94
2018-10-18T17:43:21.227Z,12.91
2018-10-18T17:45:50.454Z,12.88
2018-10-18T17:48:19.665Z,12.85
2018-10-18T17:50:48.954Z,12.79
2018-10-18T17:53:18.163Z,12.73
2018-10-18T17:55:47.396Z,12.68
2018-10-18T17:58:16.736Z,12.59
2018-10-18T18:00:45.849Z,12.56
2018-10-18T18:03:15.929Z,12.46
2018-10-18T18:05:45.224Z,12.38
2018-10-18T18:08:14.730Z,12.33
2018-10-18T18:10:45.253Z,12.32
2018-10-18T18:13:15.242Z,12.31
2018-10-18T18:15:44.512Z,12.25
2018-10-18T18:18:13.787Z,12.22
2018-10-18T18:20:43.109Z,12.21
2018-10-18T18:23:12.350Z,12.16
2018-10-18T18:25:41.573Z,12.08
2018-10-18T18:28:10.759Z,12.03
2018-10-18T18:30:39.926Z,12.00
2018-10-18T18:33:09.255Z,11.97
2018-10-18T18:35:38.415Z,11.93
2018-10-18T18:38:07.572Z,11.89
2018-10-18T18:40:37.919Z,11.79
2018-10-18T18:43:07.324Z,11.72
2018-10-18T18:45:37.075Z,11.65
2018-10-18T18:48:06.407Z,11.67
2018-10-18T18:50:35.603Z,11.68
2018-10-18T18:53:05.019Z,11.70
2018-10-18T18:55:34.192Z,11.71
2018-10-18T18:58:03.362Z,11.68
2018-10-18T19:00:32.534Z,11.65
2018-10-18T19:03:01.744Z,11.59
2018-10-18T19:05:31.133Z,11.57
2018-10-18T19:08:00.282Z,11.50
2018-10-18T19:10:29.449Z,11.43
2018-10-18T19:12:58.678Z,11.41
2018-10-18T19:15:27.930Z,11.37
2018-10-18T19:17:57.124Z,11.31
2018-10-18T19:20:26.407Z,11.34
2018-10-18T19:22:55.633Z,11.27
2018-10-18T19:25:25.062Z,11.16
2018-10-18T19:27:54.261Z,11.10
2018-10-18T19:30:23.479Z,11.10
2018-10-18T19:32:52.645Z,10.99
2018-10-18T19:35:21.854Z,10.92
2018-10-18T19:37:51.038Z,10.85
2018-10-18T19:40:20.184Z,10.81
2018-10-18T19:42:49.417Z,10.79
2018-10-18T19:45:18.737Z,10.78
2018-10-18T19:47:47.895Z,10.80
2018-10-18T19:50:17.155Z,10.80
2018-10-18T19:52:46.444Z,10.80
2018-10-18T19:55:15.467Z,10.85
2018-10-18T19:57:44.639Z,10.84
2018-10-18T20:00:13.823Z,10.79
2018-10-18T20:02:42.988Z,10.70
2018-10-18T20:05:12.166Z,10.65
2018-10-18T20:07:41.387Z,10.65
2018-10-18T20:10:10.545Z,10.64
2018-10-18T20:12:39.752Z,10.62
2018-10-18T20:15:09.194Z,10.59
2018-10-18T20:17:38.414Z,10.47
2018-10-18T20:20:09.058Z,10.42
2018-10-18T20:22:38.253Z,10.42
2018-10-18T20:25:08.823Z,10.42
2018-10-18T20:27:38.014Z,10.41
2018-10-18T20:30:09.989Z,10.40
2018-10-18T20:32:39.419Z,10.36
2018-10-18T20:35:09.130Z,10.36
2018-10-18T20:37:38.699Z,10.39
2018-10-18T20:40:10.555Z,10.40
2018-10-18T20:42:40.066Z,10.40
2018-10-18T20:45:13.654Z,10.39
2018-10-18T20:47:43.363Z,10.26
2018-10-18T20:50:13.188Z,10.23
2018-10-18T20:52:42.828Z,10.28
2018-10-18T20:55:11.983Z,10.32
2018-10-18T20:57:41.155Z,10.37
2018-10-18T21:00:10.603Z,10.42
2018-10-18T21:02:39.650Z,10.45
2018-10-18T21:05:09.074Z,10.48
2018-10-18T21:07:38.277Z,10.47
2018-10-18T21:10:07.517Z,10.45
2018-10-18T21:12:36.705Z,10.48
2018-10-18T21:15:06.136Z,10.50
2018-10-18T21:17:35.359Z,10.53
2018-10-18T21:20:04.648Z,10.55
2018-10-18T21:22:33.833Z,10.58
2018-10-18T21:25:04.315Z,10.54
2018-10-18T21:27:33.562Z,10.47
2018-10-18T21:30:02.782Z,10.45
2018-10-18T21:32:31.964Z,10.43
2018-10-18T21:35:01.129Z,10.38
2018-10-18T21:37:30.305Z,10.25
2018-10-18T21:39:59.477Z,10.21
2018-10-18T21:42:28.672Z,10.22
2018-10-18T21:44:58.062Z,10.20
2018-10-18T21:47:27.323Z,10.21
2018-10-18T21:49:56.567Z,10.23
2018-10-18T21:52:25.772Z,10.24
2018-10-18T21:54:54.957Z,10.27
2018-10-18T21:57:24.122Z,10.29
2018-10-18T21:59:54.318Z,10.27
2018-10-18T22:02:23.491Z,10.23
2018-10-18T22:04:52.656Z,10.23
2018-10-18T22:07:21.872Z,10.25
2018-10-18T22:09:51.021Z,10.24
2018-10-18T22:12:20.191Z,10.25
2018-10-18T22:14:49.383Z,10.25
2018-10-18T22:17:18.560Z,10.25
2018-10-18T22:19:47.800Z,10.24
2018-10-18T22:22:17.014Z,10.24
2018-10-18T22:24:46.177Z,10.25
2018-10-18T22:27:15.415Z,10.26
2018-10-18T22:29:44.588Z,10.25
2018-10-18T22:32:13.768Z,10.24
2018-10-18T22:34:43.275Z,10.23
2018-10-18T22:37:12.514Z,10.19
2018-10-18T22:39:41.721Z,10.12
2018-10-18T22:42:12.229Z,10.04
2018-10-18T22:44:41.406Z,9.97
2018-10-18T22:47:10.595Z,9.96
2018-10-18T22:49:39.779Z,9.97
2018-10-18T22:52:09.000Z,10.01
2018-10-18T22:54:38.214Z,10.02
2018-10-18T22:57:07.566Z,10.02
2018-10-18T22:59:36.784Z,10.02
2018-10-18T23:02:05.963Z,10.04
2018-10-18T23:04:35.123Z,10.07
2018-10-18T23:07:04.348Z,10.10
2018-10-18T23:09:33.568Z,10.15
2018-10-18T23:12:02.762Z,10.15
2018-10-18T23:14:31.970Z,10.16
2018-10-18T23:17:01.165Z,10.19
2018-10-18T23:19:30.273Z,10.18
2018-10-18T23:21:59.465Z,10.19
2018-10-18T23:24:28.703Z,10.19
2018-10-18T23:26:57.897Z,10.23
2018-10-18T23:29:27.110Z,10.22
2018-10-18T23:31:56.295Z,10.22
2018-10-18T23:34:25.492Z,10.19
2018-10-18T23:36:54.670Z,10.18
2018-10-18T23:39:23.850Z,10.18
2018-10-18T23:41:53.051Z,10.18
2018-10-18T23:44:22.241Z,10.18
2018-10-18T23:46:51.437Z,10.17
2018-10-18T23:49:20.599Z,10.15
2018-10-18T23:51:49.808Z,10.06
2018-10-18T23:54:19.080Z,10.03
2018-10-18T23:56:48.772Z,10.01
2018-10-18T23:59:17.950Z,10.04
